Terminal Aerodrome Forecast
Issued by NWS

Home | Current Version | Previous Version | Text Only | Print | Product List | Glossary Off
Versions: 1 2 3 4 5 6 7 8 9 10 11 12 13 14

000
FTUS43 KBIS 251400 AAA
TAFJMS
TAF AMD
KJMS 251402Z 2514/2612 09008KT 5SM BR OVC006
     FM251700 11011KT P6SM OVC010
     FM252100 12011KT P6SM OVC025
     FM260300 12007KT P6SM OVC040=

USA.gov is the U.S. government's official web portal to all federal, state and local government web resources and services.